Time;durP1;ratioP1;P1;durP2;ratioP2;P2;SDS_P1;SDS_P2;PMS_P1;PMS_P2;Temp;Humidity;BMP_temperature;BMP_pressure;BME280_temperature;BME280_humidity;BME280_pressure;Samples;Min_cycle;Max_cycle;Signal;HPM_P1;HPM_P2
2022/07/04 00:01:45;;;;;;;46.00;26.13;;;;;;;20.63;44.45;99639.41;4984815;28;20053;-66
2022/07/04 00:04:12;;;;;;;51.42;28.85;;;;;;;20.62;44.63;99637.78;4980375;28;20050;-67
2022/07/04 00:06:38;;;;;;;50.08;27.02;;;;;;;20.64;44.91;99651.34;4982707;28;20046;-67
2022/07/04 00:09:04;;;;;;;34.47;18.75;;;;;;;20.62;44.75;99639.78;4980428;28;20050;-67
2022/07/04 00:11:30;;;;;;;37.83;15.48;;;;;;;20.61;44.59;99627.84;4982282;28;20043;-66
2022/07/04 00:13:56;;;;;;;37.28;15.60;;;;;;;20.60;44.94;99642.88;4981133;28;20097;-68
2022/07/04 00:16:24;;;;;;;27.02;11.32;;;;;;;20.58;44.88;99630.50;4978782;28;20093;-68
2022/07/04 00:18:50;;;;;;;27.45;9.43;;;;;;;20.57;44.54;99637.19;4979937;28;20093;-67
2022/07/04 00:21:18;;;;;;;25.40;8.93;;;;;;;20.53;44.96;99639.88;4985329;28;20149;-67
2022/07/04 00:23:44;;;;;;;22.27;8.05;;;;;;;20.50;45.08;99643.34;4979198;28;20053;-65
2022/07/04 00:26:12;;;;;;;29.02;9.20;;;;;;;20.49;45.09;99627.84;4977464;28;20059;-67
2022/07/04 00:28:39;;;;;;;29.48;7.70;;;;;;;20.49;45.31;99639.75;4971716;28;20042;-67
2022/07/04 00:31:05;;;;;;;30.25;8.02;;;;;;;20.47;45.53;99638.47;4998266;28;20070;-66
2022/07/04 00:33:31;;;;;;;33.15;9.23;;;;;;;20.42;45.61;99635.94;4980064;28;20069;-67
2022/07/04 00:35:57;;;;;;;32.67;10.93;;;;;;;20.36;45.58;99641.69;4982991;28;20070;-65
2022/07/04 00:38:25;;;;;;;21.17;9.90;;;;;;;20.33;45.54;99644.38;4982410;28;20061;-66
2022/07/04 00:40:50;;;;;;;20.75;8.85;;;;;;;;;;4980178;28;20046;-68
2022/07/04 00:43:22;;;;;;;24.17;8.55;;;;;;;20.06;45.19;99600.28;4979474;28;20046;-66
2022/07/04 00:45:48;;;;;;;22.00;7.63;;;;;;;;;;4975788;28;20059;-68
2022/07/04 00:48:15;;;;;;;15.43;6.70;;;;;;;20.30;45.48;99647.84;4980694;28;20050;-66
2022/07/04 00:50:41;;;;;;;;;;;;;;;20.25;45.61;99646.09;4978356;28;20145;-68
2022/07/04 00:53:07;;;;;;;14.90;5.47;;;;;;;20.19;45.83;99655.78;4979581;28;19929;-67
2022/07/04 00:55:35;;;;;;;23.70;5.27;;;;;;;20.08;45.81;99647.91;4972374;28;20762;-67
2022/07/04 00:58:01;;;;;;;13.18;4.75;;;;;;;19.93;46.07;99654.91;4997616;28;20070;-67
2022/07/04 01:00:27;;;;;;;12.57;4.60;;;;;;;19.78;46.74;99655.50;4977861;28;20114;-67
2022/07/04 01:02:53;;;;;;;16.88;4.72;;;;;;;19.68;47.39;99656.75;4981490;28;20050;-67
2022/07/04 01:05:19;;;;;;;19.05;5.60;;;;;;;19.59;47.52;99647.69;4983018;28;20057;-67
2022/07/04 01:07:46;;;;;;;23.30;5.82;;;;;;;19.62;47.83;99661.69;4978925;28;20051;-66
2022/07/04 01:10:12;;;;;;;29.33;6.18;;;;;;;19.60;47.98;99654.88;4981905;28;20305;-67
2022/07/04 01:12:40;;;;;;;23.13;5.72;;;;;;;19.55;48.41;99666.97;4980614;28;20046;-67
2022/07/04 01:15:07;;;;;;;23.38;5.88;;;;;;;19.48;48.67;99661.97;4977124;28;20145;-67
2022/07/04 01:17:33;;;;;;;19.48;5.45;;;;;;;19.52;48.67;99662.91;4974254;28;20070;-66
2022/07/04 01:19:59;;;;;;;11.68;5.20;;;;;;;19.59;48.24;99661.53;4983233;28;20809;-66
2022/07/04 01:22:27;;;;;;;21.15;5.90;;;;;;;19.60;48.31;99664.00;4975634;28;20502;-66
2022/07/04 01:24:53;;;;;;;17.80;5.63;;;;;;;19.63;48.20;99671.63;4968979;28;20121;-65
2022/07/04 01:27:19;;;;;;;20.77;5.30;;;;;;;19.62;48.35;99672.78;4982078;28;20063;-67
2022/07/04 01:29:45;;;;;;;15.35;5.38;;;;;;;19.63;48.39;99673.59;4978759;28;20051;-67
2022/07/04 01:32:11;;;;;;;23.70;5.15;;;;;;;19.67;48.40;99678.13;4981538;28;20054;-67
2022/07/04 01:34:38;;;;;;;21.45;6.20;;;;;;;19.74;48.46;99669.25;4977663;28;20506;-67
2022/07/04 01:37:04;;;;;;;;;;;;;;;19.79;48.04;99668.22;4980021;28;20137;-66
2022/07/04 01:39:32;;;;;;;14.47;4.73;;;;;;;19.83;47.92;99666.41;4976892;28;20016;-68
2022/07/04 01:41:59;;;;;;;25.10;5.63;;;;;;;19.89;47.87;99672.53;4997680;28;20112;-67
2022/07/04 01:44:25;;;;;;;21.77;6.07;;;;;;;19.89;48.08;99678.91;4979100;28;20205;-67
2022/07/04 01:46:51;;;;;;;18.63;5.45;;;;;;;19.89;47.87;99670.59;4978956;28;20141;-66
2022/07/04 01:49:17;;;;;;;15.88;5.20;;;;;;;19.91;47.73;99671.06;4978216;28;20046;-67
2022/07/04 01:51:44;;;;;;;18.90;5.80;;;;;;;19.97;47.62;99680.81;4996332;28;20133;-66
2022/07/04 01:54:11;;;;;;;15.40;5.18;;;;;;;20.01;47.88;99683.72;4973269;28;20504;-67
2022/07/04 01:56:38;;;;;;;13.35;5.30;;;;;;;20.03;47.69;99680.59;4981452;28;20497;-66
2022/07/04 01:59:04;;;;;;;13.73;5.38;;;;;;;20.02;48.05;99677.00;4980879;28;20081;-66
2022/07/04 02:01:30;;;;;;;16.67;5.50;;;;;;;20.05;47.89;99678.28;4979686;28;20074;-66
2022/07/04 02:04:00;;;;;;;15.27;6.10;;;;;;;20.07;47.96;99679.59;4977260;28;20058;-68
2022/07/04 02:06:26;;;;;;;19.25;6.43;;;;;;;20.08;47.96;99675.66;4977660;28;20555;-66
2022/07/04 02:14:23;;;;;;;12.60;6.15;;;;;;;20.08;48.02;99683.97;4976877;28;20592;-66
2022/07/04 02:16:50;;;;;;;16.52;6.05;;;;;;;20.10;48.33;99683.63;4995589;28;20137;-67
2022/07/04 02:19:16;;;;;;;17.65;5.32;;;;;;;20.12;48.45;99686.88;4979530;28;20050;-67
2022/07/04 02:21:42;;;;;;;12.32;5.70;;;;;;;20.13;48.57;99691.25;4980856;28;20193;-66
2022/07/04 02:24:08;;;;;;;19.95;6.00;;;;;;;20.16;48.51;99690.59;4979446;28;20576;-65
2022/07/04 02:26:34;;;;;;;15.20;5.70;;;;;;;20.23;48.73;99695.59;4977764;28;20057;-66
2022/07/04 02:29:01;;;;;;;16.75;5.55;;;;;;;20.26;49.00;99689.34;4983574;28;20050;-67
2022/07/04 02:31:27;;;;;;;13.85;5.43;;;;;;;20.30;48.67;99692.25;4985715;28;20173;-66
2022/07/04 02:33:53;;;;;;;17.25;5.80;;;;;;;20.32;48.99;99689.94;4999082;28;20136;-66
2022/07/04 02:36:19;;;;;;;19.35;6.10;;;;;;;20.32;48.99;99687.16;4983722;28;20042;-67
2022/07/04 02:38:45;;;;;;;21.73;6.75;;;;;;;20.38;48.89;99700.50;4982272;28;20153;-67
2022/07/04 02:41:11;;;;;;;20.85;5.90;;;;;;;20.45;48.50;99697.16;4984187;28;20588;-67
2022/07/04 02:43:37;;;;;;;14.18;5.38;;;;;;;20.48;48.89;99696.44;4981543;28;20080;-67
2022/07/04 02:46:05;;;;;;;17.02;6.25;;;;;;;20.54;48.88;99689.50;4975148;28;20046;-66
2022/07/04 02:48:31;;;;;;;18.40;6.85;;;;;;;20.60;48.36;99692.06;4982079;28;20139;-66
2022/07/04 02:50:57;;;;;;;11.50;6.07;;;;;;;20.65;48.59;99700.16;4979004;28;20097;-66
2022/07/04 02:53:23;;;;;;;12.98;6.05;;;;;;;20.71;48.57;99701.56;4984935;28;20050;-67
2022/07/04 02:55:49;;;;;;;13.52;5.95;;;;;;;20.77;48.92;99691.03;4984367;28;20070;-67
2022/07/04 02:58:15;;;;;;;15.88;6.75;;;;;;;20.81;48.73;99692.81;4978905;28;20047;-66
2022/07/04 03:00:41;;;;;;;15.40;6.15;;;;;;;20.87;48.63;99685.06;4981488;28;20104;-68
2022/07/04 03:03:08;;;;;;;16.45;6.38;;;;;;;20.92;48.75;99686.78;4984688;28;20074;-67
2022/07/04 03:05:34;;;;;;;19.80;6.28;;;;;;;20.96;48.64;99693.28;4997313;28;20553;-68
2022/07/04 03:08:00;;;;;;;16.48;6.38;;;;;;;21.04;48.16;99700.66;4986456;28;20046;-68
2022/07/04 03:10:26;;;;;;;14.48;5.95;;;;;;;21.09;48.42;99694.88;4979256;28;20096;-68
2022/07/04 03:12:52;;;;;;;15.95;5.70;;;;;;;21.17;48.37;99695.91;4980936;28;20070;-66
2022/07/04 03:15:18;;;;;;;15.48;5.70;;;;;;;21.21;48.29;99696.00;4965046;28;20089;-67
2022/07/04 03:17:44;;;;;;;11.68;5.55;;;;;;;21.27;48.05;99699.38;4984304;28;20054;-68
2022/07/04 03:20:12;;;;;;;20.38;7.72;;;;;;;21.32;48.20;99705.50;4977575;28;20081;-67
2022/07/04 03:22:38;;;;;;;16.92;6.57;;;;;;;21.38;48.12;99698.53;4978540;28;20145;-67
2022/07/04 03:25:05;;;;;;;13.95;6.47;;;;;;;21.46;48.00;99704.31;4980432;28;20054;-68
2022/07/04 03:27:31;;;;;;;25.23;14.25;;;;;;;21.52;47.72;99697.34;4982199;28;20062;-67
2022/07/04 03:29:57;;;;;;;17.85;8.18;;;;;;;21.61;47.35;99697.19;4979988;28;20150;-67
2022/07/04 03:32:23;;;;;;;17.73;6.80;;;;;;;21.67;47.49;99698.63;4979383;28;20207;-68
2022/07/04 03:34:49;;;;;;;19.02;6.22;;;;;;;21.73;47.23;99704.75;4965379;28;20101;-68
2022/07/04 03:37:16;;;;;;;30.85;12.82;;;;;;;21.78;47.17;99701.69;4980550;28;20145;-67
2022/07/04 03:39:42;;;;;;;26.58;6.55;;;;;;;21.84;47.02;99699.47;4977220;28;20537;-67
2022/07/04 03:42:08;;;;;;;19.80;6.57;;;;;;;21.90;46.95;99704.44;4964259;28;20637;-67
2022/07/04 03:44:34;;;;;;;23.77;7.33;;;;;;;22.00;46.46;99711.47;5000020;28;20046;-67
2022/07/04 03:47:01;;;;;;;25.98;8.27;;;;;;;22.08;46.62;99704.91;4977855;28;20038;-66
2022/07/04 03:49:27;;;;;;;15.57;6.18;;;;;;;22.18;46.30;99700.84;4974513;28;20046;-67
2022/07/04 03:51:53;;;;;;;21.23;7.68;;;;;;;22.27;46.31;99705.41;4974232;28;20050;-66
2022/07/04 03:54:20;;;;;;;24.13;11.98;;;;;;;22.36;45.80;99694.94;4982689;28;20054;-67
2022/07/04 03:56:46;;;;;;;25.45;6.45;;;;;;;22.45;45.62;99701.13;4997612;28;20470;-66
2022/07/04 03:59:12;;;;;;;23.17;7.40;;;;;;;22.55;45.73;99696.22;4979743;28;20050;-67
2022/07/04 04:01:38;;;;;;;19.38;6.32;;;;;;;22.53;45.49;99693.78;4980335;28;20046;-67
2022/07/04 04:06:49;;;;;;;19.92;9.63;;;;;;;22.85;45.07;99706.94;4979149;28;20043;-66
2022/07/04 04:09:18;;;;;;;20.23;6.47;;;;;;;22.93;44.98;99717.88;4981144;28;20053;-67
2022/07/04 04:11:45;;;;;;;23.38;6.13;;;;;;;23.02;44.96;99716.88;4980767;28;20042;-67
2022/07/04 04:14:12;;;;;;;15.05;6.90;;;;;;;23.06;44.45;99712.22;4979405;28;20529;-67
2022/07/04 04:16:38;;;;;;;23.58;6.60;;;;;;;23.13;44.57;99714.38;4980666;28;20057;-66
2022/07/04 04:19:04;;;;;;;16.30;6.50;;;;;;;23.22;44.43;99714.97;4979490;28;20399;-69
2022/07/04 04:21:30;;;;;;;23.98;7.35;;;;;;;23.28;44.12;99715.53;4984250;28;20058;-68
2022/07/04 04:23:56;;;;;;;17.27;6.90;;;;;;;23.33;44.35;99710.47;4990202;28;20047;-66
2022/07/04 04:26:22;;;;;;;25.80;7.88;;;;;;;23.35;44.39;99710.91;4978315;28;20064;-67
2022/07/04 04:28:50;;;;;;;16.95;7.47;;;;;;;23.43;44.00;99711.88;4979508;28;20153;-67
2022/07/04 04:31:17;;;;;;;19.98;6.93;;;;;;;23.48;44.21;99711.59;4975410;28;20522;-67
2022/07/04 04:33:43;;;;;;;29.65;7.50;;;;;;;23.54;44.13;99708.53;4982026;28;20452;-66
2022/07/04 04:36:09;;;;;;;21.33;7.85;;;;;;;23.58;44.00;99707.44;4979574;28;20451;-66
2022/07/04 04:38:35;;;;;;;27.48;7.88;;;;;;;23.65;44.11;99701.19;4973965;28;20047;-66
2022/07/04 04:41:01;;;;;;;25.05;7.72;;;;;;;23.76;43.99;99712.59;4981946;28;20038;-67
2022/07/04 04:43:27;;;;;;;20.25;6.60;;;;;;;23.72;44.27;99697.72;4967538;28;20078;-67
2022/07/04 04:45:55;;;;;;;26.20;7.43;;;;;;;23.90;43.92;99715.66;4976170;28;20100;-67
2022/07/04 04:48:21;;;;;;;23.00;7.47;;;;;;;23.96;44.26;99718.16;4979946;28;20072;-68
2022/07/04 04:50:47;;;;;;;15.55;7.00;;;;;;;24.02;44.04;99716.66;4983585;28;20096;-68
2022/07/04 04:53:13;;;;;;;19.30;6.95;;;;;;;24.07;43.90;99720.00;4975802;28;20061;-67
2022/07/04 04:55:39;;;;;;;12.98;6.45;;;;;;;24.11;44.29;99710.88;4978965;28;20133;-67
2022/07/04 04:58:05;;;;;;;17.17;7.15;;;;;;;24.14;43.78;99715.75;4971883;28;20518;-67
2022/07/04 05:00:31;;;;;;;14.65;5.90;;;;;;;24.21;43.84;99719.50;4997246;28;20147;-67
2022/07/04 05:02:59;;;;;;;15.53;5.97;;;;;;;24.25;43.69;99713.94;4977987;28;20527;-67
2022/07/04 05:05:25;;;;;;;16.80;6.55;;;;;;;24.31;43.66;99725.63;4981845;28;20685;-68
2022/07/04 05:07:51;;;;;;;13.20;6.87;;;;;;;24.39;43.38;99716.22;4974758;28;20117;-67
2022/07/04 05:10:17;;;;;;;17.00;6.18;;;;;;;24.44;43.26;99723.50;4976899;28;20301;-67
2022/07/04 05:12:43;;;;;;;17.27;6.80;;;;;;;24.45;43.49;99719.50;4975910;28;20484;-67
2022/07/04 05:15:10;;;;;;;17.90;6.32;;;;;;;24.52;43.48;99714.03;4977753;28;20046;-68
2022/07/04 05:17:36;;;;;;;16.05;6.40;;;;;;;24.57;43.26;99713.72;4951814;28;20074;-68
2022/07/04 05:20:05;;;;;;;17.30;6.97;;;;;;;24.63;42.99;99717.84;4973370;28;20054;-67
2022/07/04 05:22:31;;;;;;;19.42;6.97;;;;;;;24.67;43.36;99714.28;4978565;28;20050;-67
2022/07/04 05:24:57;;;;;;;12.20;5.78;;;;;;;24.74;43.03;99722.78;4975963;28;20050;-68
2022/07/04 05:27:23;;;;;;;13.43;6.40;;;;;;;24.60;42.85;99701.00;4959089;28;20486;-68
2022/07/04 05:29:49;;;;;;;18.42;6.43;;;;;;;24.79;42.83;99725.31;4977259;28;20186;-67
2022/07/04 05:32:15;;;;;;;15.32;5.60;;;;;;;24.83;43.02;99719.78;4980006;28;20095;-67
2022/07/04 05:34:42;;;;;;;14.90;6.13;;;;;;;24.86;42.63;99713.44;4981259;28;20067;-67
2022/07/04 05:37:09;;;;;;;15.07;7.30;;;;;;;24.96;42.91;99715.59;4981796;28;20081;-67
2022/07/04 05:39:35;;;;;;;24.10;6.60;;;;;;;24.95;42.62;99713.19;4981943;28;20046;-66
2022/07/04 05:42:02;;;;;;;17.45;6.15;;;;;;;24.97;42.59;99724.78;4982649;28;20065;-65
2022/07/04 05:44:28;;;;;;;15.95;5.20;;;;;;;25.03;42.35;99720.50;4976954;28;20077;-68
2022/07/04 05:46:54;;;;;;;16.92;6.15;;;;;;;25.11;42.49;99718.59;4981229;28;20129;-68
2022/07/04 05:49:20;;;;;;;21.85;7.15;;;;;;;25.18;42.17;99715.94;4983441;28;20057;-68
2022/07/04 05:51:46;;;;;;;13.10;5.57;;;;;;;25.24;42.12;99717.22;4976128;28;20051;-68
2022/07/04 05:54:13;;;;;;;15.65;5.70;;;;;;;25.26;41.66;99717.63;4961202;28;20054;-68
2022/07/04 05:56:41;;;;;;;16.60;6.25;;;;;;;25.32;41.68;99724.53;4980459;28;20065;-69
2022/07/04 06:02:03;;;;;;;13.80;4.88;;;;;;;25.41;41.54;99717.84;4930032;23;20056;-72
2022/07/04 06:04:29;;;;;;;16.48;5.20;;;;;;;25.41;41.28;99715.06;4893764;29;20058;-72
2022/07/04 06:06:55;;;;;;;9.10;5.10;;;;;;;25.49;41.24;99719.59;4899289;29;20541;-71
2022/07/04 06:09:23;;;;;;;11.73;4.82;;;;;;;25.59;41.10;99718.13;4900436;29;20048;-70
2022/07/04 06:11:49;;;;;;;15.40;5.07;;;;;;;25.70;40.74;99716.28;4901345;29;20044;-71
2022/07/04 06:14:15;;;;;;;13.50;5.45;;;;;;;25.79;40.09;99713.19;4901333;29;20052;-71
2022/07/04 06:16:41;;;;;;;15.43;4.85;;;;;;;25.86;39.89;99715.28;4905155;29;20052;-73
2022/07/04 06:19:08;;;;;;;16.17;4.35;;;;;;;25.90;39.56;99711.31;4902083;29;20459;-74
2022/07/04 06:21:34;;;;;;;12.52;4.65;;;;;;;25.97;39.84;99712.59;4905510;29;20051;-70
2022/07/04 06:24:01;;;;;;;13.98;4.97;;;;;;;25.97;39.54;99709.81;4898233;29;20103;-73
2022/07/04 06:26:28;;;;;;;13.40;4.85;;;;;;;26.06;39.35;99713.09;4561801;28;10000328;-71
2022/07/04 06:28:54;;;;;;;11.80;4.70;;;;;;;26.19;39.35;99706.06;4900609;29;20070;-72
2022/07/04 06:31:20;;;;;;;17.25;4.78;;;;;;;26.36;38.58;99706.63;4900686;29;20112;-71
2022/07/04 06:36:31;;;;;;;12.65;4.50;;;;;;;26.76;37.63;99705.00;4905823;29;20504;-71
2022/07/04 06:38:57;;;;;;;10.13;4.40;;;;;;;27.03;36.84;99716.06;4907097;29;20055;-73
2022/07/04 06:41:24;;;;;;;10.20;4.47;;;;;;;27.21;36.04;99708.94;4904031;29;20048;-71
2022/07/04 06:43:51;;;;;;;10.05;4.95;;;;;;;27.25;35.97;99716.19;4902945;29;20056;-71
2022/07/04 06:46:17;;;;;;;12.10;4.37;;;;;;;27.35;35.89;99706.22;4562889;29;9999725;-71
2022/07/04 06:48:43;;;;;;;15.48;5.50;;;;;;;27.56;35.52;99710.41;4899024;29;20504;-70
2022/07/04 06:51:09;;;;;;;14.50;6.13;;;;;;;27.62;35.36;99713.59;4899635;29;20137;-71
2022/07/04 06:53:35;;;;;;;10.10;4.90;;;;;;;27.63;35.10;99706.78;4905466;29;20048;-70
2022/07/04 06:56:01;;;;;;;13.80;4.50;;;;;;;27.71;35.35;99703.66;4911533;29;20055;-72
2022/07/04 06:58:27;;;;;;;14.52;4.47;;;;;;;27.79;34.84;99707.28;4924995;29;20051;-70
2022/07/04 07:00:55;;;;;;;9.87;4.83;;;;;;;27.82;34.67;99703.69;4909089;29;20064;-72
2022/07/04 07:03:21;;;;;;;11.77;4.47;;;;;;;27.95;34.74;99701.31;4909886;29;20044;-70
2022/07/04 07:05:47;;;;;;;9.63;4.63;;;;;;;28.19;34.20;99701.00;4906694;29;20567;-71
2022/07/04 07:08:13;;;;;;;11.70;4.93;;;;;;;28.34;34.12;99699.03;4907323;29;20196;-71
2022/07/04 07:10:39;;;;;;;13.30;5.10;;;;;;;28.44;34.03;99698.22;4883577;29;20263;-73
2022/07/04 07:13:05;;;;;;;11.80;5.20;;;;;;;28.41;33.93;99701.84;4904210;29;20747;-72
2022/07/04 07:15:35;;;;;;;17.98;5.15;;;;;;;28.45;34.19;99702.63;4890293;29;20344;-72
2022/07/04 07:18:02;;;;;;;9.10;4.65;;;;;;;28.52;33.61;99704.66;4906982;29;20472;-72
2022/07/04 07:20:28;;;;;;;11.88;5.05;;;;;;;28.74;33.09;99697.03;4908781;29;20048;-72
2022/07/04 07:22:54;;;;;;;10.57;4.77;;;;;;;28.91;32.22;99701.09;4925269;29;20488;-71
2022/07/04 07:25:21;;;;;;;10.82;4.88;;;;;;;29.06;32.53;99701.84;4904580;29;20055;-71
2022/07/04 07:27:47;;;;;;;9.98;4.60;;;;;;;29.30;32.19;99702.22;4892864;29;20553;-71
2022/07/04 07:30:13;;;;;;;14.07;5.40;;;;;;;29.34;32.15;99697.38;4904309;29;21534;-72
2022/07/04 07:32:40;;;;;;;15.25;4.90;;;;;;;29.39;32.10;99696.97;4900743;29;20052;-72
2022/07/04 07:35:08;;;;;;;12.48;5.18;;;;;;;29.42;32.09;99698.19;4899202;29;20546;-72
2022/07/04 07:37:34;;;;;;;11.23;4.78;;;;;;;29.54;31.44;99692.13;4906007;29;20494;-72
2022/07/04 07:40:00;;;;;;;13.60;4.83;;;;;;;29.75;30.03;99701.69;4886579;29;20541;-72
2022/07/04 07:42:27;;;;;;;11.88;5.57;;;;;;;29.76;30.26;99697.66;4906616;29;20052;-70
2022/07/04 07:44:53;;;;;;;12.02;4.90;;;;;;;30.02;30.00;99695.53;4903923;29;20192;-71
2022/07/04 07:47:19;;;;;;;11.43;4.80;;;;;;;30.00;30.61;99681.06;4906816;29;20591;-71
2022/07/04 07:49:47;;;;;;;10.37;4.90;;;;;;;30.12;30.42;99680.59;4914841;29;20063;-72
2022/07/04 07:52:15;;;;;;;11.68;5.10;;;;;;;30.32;30.42;99685.72;4914123;29;20518;-71
2022/07/04 07:54:42;;;;;;;11.57;5.97;;;;;;;30.41;30.02;99690.88;4903390;29;20052;-73
2022/07/04 07:57:07;;;;;;;10.07;5.03;;;;;;;30.43;29.44;99694.88;4919495;29;20074;-73
2022/07/04 07:59:33;;;;;;;11.93;4.60;;;;;;;30.63;29.22;99694.38;4889369;29;20150;-73
2022/07/04 08:02:00;;;;;;;10.93;4.43;;;;;;;30.85;28.03;99691.34;4903378;29;20558;-73
2022/07/04 08:04:35;;;;;;;13.02;4.88;;;;;;;31.06;28.51;99698.00;4900400;29;20143;-73
2022/07/04 08:07:03;;;;;;;11.00;5.82;;;;;;;30.98;28.75;99694.44;4903491;29;20053;-73
2022/07/04 08:09:32;;;;;;;12.38;4.50;;;;;;;30.89;28.44;99694.16;4902767;29;20154;-72
2022/07/04 08:11:58;;;;;;;11.25;4.88;;;;;;;30.97;27.99;99692.84;4904238;29;20060;-73
2022/07/04 08:14:25;;;;;;;9.25;5.05;;;;;;;31.13;28.10;99693.06;4900174;29;20128;-73
2022/07/04 08:16:51;;;;;;;10.65;4.60;;;;;;;31.48;27.50;99698.00;4898904;29;20103;-71
2022/07/04 08:19:17;;;;;;;17.03;5.50;;;;;;;31.87;27.05;99696.72;4889039;29;20054;-72
2022/07/04 08:21:43;;;;;;;12.55;5.07;;;;;;;32.20;26.69;99694.22;4905672;29;20456;-72
2022/07/04 08:24:09;;;;;;;16.23;6.23;;;;;;;32.54;26.68;99689.72;4904764;29;20158;-73
2022/07/04 08:26:37;;;;;;;12.37;6.30;;;;;;;32.47;26.55;99695.47;4906917;29;20087;-72
2022/07/04 08:29:03;;;;;;;12.95;5.00;;;;;;;32.40;26.22;99693.59;4901291;29;20308;-70
2022/07/04 08:31:29;;;;;;;14.75;6.70;;;;;;;32.59;25.42;99700.53;4906165;29;20044;-71
2022/07/04 08:33:55;;;;;;;11.43;5.18;;;;;;;32.82;25.02;99696.13;4904917;29;20115;-72
2022/07/04 08:36:21;;;;;;;11.85;4.68;;;;;;;32.98;25.11;99698.28;4907856;29;20507;-71
2022/07/04 08:38:47;;;;;;;11.63;5.15;;;;;;;33.27;24.01;99697.75;4907553;29;20523;-71
2022/07/04 08:41:15;;;;;;;13.30;5.20;;;;;;;33.24;24.22;99692.97;4906226;29;20070;-72
2022/07/04 08:43:45;;;;;;;13.57;5.13;;;;;;;33.28;24.06;99692.91;4905656;29;20080;-72
2022/07/04 08:46:14;;;;;;;13.65;5.47;;;;;;;33.60;23.92;99694.31;4908461;29;20294;-71
2022/07/04 08:48:42;;;;;;;16.45;5.53;;;;;;;34.03;23.50;99682.06;4923004;29;20051;-72
2022/07/04 08:51:14;;;;;;;9.98;5.20;;;;;;;34.49;23.44;99692.72;4907918;29;20055;-71
2022/07/04 08:53:49;;;;;;;10.40;5.50;;;;;;;34.83;22.87;99682.19;4911060;29;20198;-70
2022/07/04 08:59:01;;;;;;;13.38;5.60;;;;;;;35.21;22.81;99685.25;4906521;29;20044;-71
2022/07/04 09:01:29;;;;;;;14.73;6.03;;;;;;;35.50;22.47;99677.94;4908101;29;20060;-71
2022/07/04 09:03:55;;;;;;;13.85;5.55;;;;;;;35.94;21.56;99679.53;4907954;29;20096;-70
2022/07/04 09:06:21;;;;;;;;;;;;;;;36.13;21.77;99677.75;4908725;29;20559;-70
2022/07/04 09:08:47;;;;;;;12.93;5.70;;;;;;;35.41;22.36;99678.59;4908611;29;20033;-70
2022/07/04 09:11:13;;;;;;;13.32;5.97;;;;;;;35.53;22.52;99673.44;4904696;29;20107;-70
2022/07/04 09:13:39;;;;;;;12.32;6.20;;;;;;;36.00;22.21;99669.97;4904013;29;20052;-71
2022/07/04 09:16:07;;;;;;;16.75;6.65;;;;;;;36.37;21.41;99668.84;4902503;29;20044;-72
2022/07/04 09:18:35;;;;;;;21.08;6.82;;;;;;;36.12;21.93;99676.16;4904567;29;20067;-72
2022/07/04 09:21:04;;;;;;;14.82;6.22;;;;;;;36.10;22.13;99673.75;4907598;29;20060;-72
2022/07/04 09:23:32;;;;;;;12.65;7.40;;;;;;;35.72;22.43;99680.97;4906105;29;20058;-71
2022/07/04 09:26:13;;;;;;;14.70;6.60;;;;;;;35.57;22.81;99674.94;4906157;29;20055;-71
2022/07/04 09:28:41;;;;;;;23.35;7.70;;;;;;;35.81;22.85;99673.84;4917118;29;20126;-72
2022/07/04 09:31:20;;;;;;;12.95;6.88;;;;;;;35.81;22.69;99668.94;4904366;29;20052;-72
2022/07/04 09:33:49;;;;;;;13.77;6.80;;;;;;;35.03;23.60;99667.91;4921468;29;20052;-72
2022/07/04 09:36:16;;;;;;;21.23;7.97;;;;;;;35.34;23.04;99673.13;4905470;29;20048;-72
2022/07/04 09:38:42;;;;;;;14.07;7.90;;;;;;;35.74;22.13;99660.63;4905971;29;20134;-72
2022/07/04 09:44:01;;;;;;;12.63;7.00;;;;;;;36.77;21.30;99674.03;4902477;29;20059;-73
2022/07/04 09:46:29;;;;;;;12.02;6.75;;;;;;;37.28;21.13;99670.22;4904569;29;20052;-73
2022/07/04 09:48:55;;;;;;;13.07;6.68;;;;;;;37.62;20.42;99664.91;4904241;29;20052;-72
2022/07/04 09:51:41;;;;;;;12.10;6.80;;;;;;;38.13;19.88;99665.84;4885991;29;20115;-71
2022/07/04 09:54:31;;;;;;;11.73;6.45;;;;;;;38.65;19.30;99660.44;4899809;29;20044;-73
2022/07/04 09:56:59;;;;;;;13.50;6.63;;;;;;;38.80;19.11;99662.69;4905328;29;20060;-71
2022/07/04 09:59:27;;;;;;;14.88;7.00;;;;;;;39.00;18.96;99660.16;4919050;29;20060;-71
2022/07/04 10:02:06;;;;;;;10.75;6.35;;;;;;;39.10;18.98;99652.38;4905762;29;20071;-73
2022/07/04 10:04:45;;;;;;;21.30;7.50;;;;;;;39.12;18.98;99651.91;4919147;29;20159;-71
2022/07/04 10:07:11;;;;;;;18.35;6.35;;;;;;;39.04;18.67;99648.59;4906137;29;20235;-72
2022/07/04 10:09:37;;;;;;;;;;;;;;;39.25;18.79;99640.31;4908259;29;20056;-73
2022/07/04 10:12:03;;;;;;;13.57;7.22;;;;;;;39.21;18.82;99631.13;4905765;29;20417;-73
2022/07/04 10:14:30;;;;;;;16.38;6.80;;;;;;;38.28;19.63;99641.16;4905590;29;20056;-73
2022/07/04 10:16:56;;;;;;;13.55;6.45;;;;;;;38.18;19.60;99635.91;4907404;29;20407;-72
2022/07/04 10:19:24;;;;;;;11.18;5.78;;;;;;;38.34;18.96;99637.66;4904182;29;20056;-72
2022/07/04 10:21:51;;;;;;;14.32;6.00;;;;;;;38.78;18.25;99636.63;4903213;29;20044;-72
2022/07/04 10:24:17;;;;;;;10.90;5.80;;;;;;;38.49;18.48;99640.75;4903518;29;20048;-72
2022/07/04 10:26:43;;;;;;;;;;;;;;;39.06;17.92;99633.81;4908821;29;20131;-72
2022/07/04 10:29:11;;;;;;;13.85;5.78;;;;;;;39.75;17.12;99636.38;4906610;29;20204;-72
2022/07/04 10:31:37;;;;;;;14.45;5.60;;;;;;;40.11;16.77;99632.59;4905549;29;20052;-72
2022/07/04 10:34:03;;;;;;;;;;;;;;;40.20;17.08;99613.78;4905782;29;20044;-72
2022/07/04 10:36:31;;;;;;;13.02;6.47;;;;;;;39.40;17.64;99624.09;4906230;29;19975;-71
2022/07/04 10:38:59;;;;;;;12.00;6.85;;;;;;;39.16;18.12;99626.81;4907193;29;20044;-73
2022/07/04 10:41:26;;;;;;;12.23;6.03;;;;;;;38.69;18.43;99623.16;4906764;29;20052;-72
2022/07/04 10:43:56;;;;;;;12.10;5.90;;;;;;;39.17;17.78;99614.13;4907202;29;20083;-72
2022/07/04 10:46:44;;;;;;;10.10;5.63;;;;;;;39.20;17.79;99615.25;4921862;29;20052;-72
2022/07/04 10:49:25;;;;;;;12.07;6.10;;;;;;;39.15;17.69;99608.88;4908055;29;20060;-71
2022/07/04 10:51:54;;;;;;;14.77;6.63;;;;;;;39.11;17.79;99613.97;4910131;29;20055;-74
2022/07/04 10:54:28;;;;;;;13.88;6.20;;;;;;;39.41;17.70;99608.53;4909956;29;20665;-73
2022/07/04 10:56:55;;;;;;;14.98;6.20;;;;;;;40.11;16.86;99609.72;4907499;29;20059;-74
2022/07/04 10:59:25;;;;;;;12.95;5.18;;;;;;;39.32;17.37;99607.75;4892916;29;20401;-72
2022/07/04 11:02:22;;;;;;;10.27;5.45;;;;;;;37.43;19.65;99619.19;4909015;29;20063;-71
2022/07/04 11:04:52;;;;;;;11.85;5.82;;;;;;;35.53;21.58;99599.56;4889381;29;20064;-72
2022/07/04 11:07:21;;;;;;;9.82;5.72;;;;;;;34.44;22.48;99603.28;4907294;29;20111;-73
2022/07/04 11:13:06;;;;;;;10.15;6.30;;;;;;;33.39;24.75;99600.00;4909818;29;20087;-72
2022/07/04 11:16:11;;;;;;;13.63;5.47;;;;;;;34.71;23.20;99598.59;4907668;29;20040;-72
2022/07/04 11:18:42;;;;;;;14.70;6.10;;;;;;;35.06;22.33;99604.53;4904851;29;20060;-72
2022/07/04 11:21:25;;;;;;;12.93;5.80;;;;;;;34.81;22.37;99588.19;4904990;29;20063;-73
2022/07/04 11:23:54;;;;;;;10.63;5.93;;;;;;;34.48;22.79;99598.31;4910185;29;20401;-73
2022/07/04 11:26:21;;;;;;;11.88;5.50;;;;;;;34.03;22.87;99596.22;4563769;28;9999826;-73
2022/07/04 11:28:48;;;;;;;11.52;5.63;;;;;;;33.74;23.43;99594.81;4906234;29;20064;-73
2022/07/04 11:31:14;;;;;;;;;;;;;;;34.89;22.40;99593.19;4900668;29;20052;-72
2022/07/04 11:33:41;;;;;;;14.75;5.60;;;;;;;36.97;20.16;99590.34;4919635;29;19931;-72
2022/07/04 11:36:09;;;;;;;9.73;5.82;;;;;;;38.70;18.56;99587.63;4903074;29;20076;-72
2022/07/04 11:38:44;;;;;;;12.43;6.43;;;;;;;39.56;17.55;99562.13;4901905;29;20047;-72
2022/07/04 11:46:47;;;;;;;11.48;5.28;;;;;;;36.55;20.21;99578.00;4902361;29;20152;-69
2022/07/04 11:49:13;;;;;;;16.50;5.47;;;;;;;35.33;21.37;99586.31;4906557;29;20508;-69
2022/07/04 11:51:43;;;;;;;13.93;5.40;;;;;;;34.22;22.65;99578.28;4906548;29;20507;-69
2022/07/04 11:54:10;;;;;;;13.77;5.80;;;;;;;33.52;23.74;99588.84;4908651;29;20139;-70
2022/07/04 11:56:38;;;;;;;13.43;6.30;;;;;;;34.68;22.72;99576.78;4903839;29;20111;-70